Time;durP1;ratioP1;P1;durP2;ratioP2;P2;SDS_P1;SDS_P2;PMS_P1;PMS_P2;Temp;Humidity;BMP_temperature;BMP_pressure;BME280_temperature;BME280_humidity;BME280_pressure;Samples;Min_cycle;Max_cycle;Signal;HPM_P1;HPM_P2
2022/03/14 00:01:58;;;;;;;9.07;8.27;;;;;;;;;;4998049;28;20344;-64
2022/03/14 00:04:23;;;;;;;7.45;6.75;;;;;;;;;;4999035;28;20033;-64
2022/03/14 00:06:49;;;;;;;7.70;6.95;;;;;;;;;;4998770;28;20521;-64
2022/03/14 00:09:17;;;;;;;7.70;6.82;;;;;;;;;;5000378;28;20034;-63
2022/03/14 00:11:43;;;;;;;9.32;7.70;;;;;;;;;;4998386;28;20030;-63
2022/03/14 00:14:09;;;;;;;9.90;8.90;;;;;;;;;;4997407;28;20410;-64
2022/03/14 00:16:43;;;;;;;6.20;5.68;;;;;;;;;;4996410;28;20046;-64
2022/03/14 00:19:09;;;;;;;6.38;5.80;;;;;;;;;;4997741;28;20037;-63
2022/03/14 00:21:38;;;;;;;8.18;7.35;;;;;;;;;;4996305;28;20029;-62
2022/03/14 00:24:06;;;;;;;7.88;7.07;;;;;;;;;;4997135;28;20057;-64
2022/03/14 00:26:32;;;;;;;7.35;6.75;;;;;;;;;;4996959;28;20463;-64
2022/03/14 00:28:57;;;;;;;6.90;6.30;;;;;;;;;;4996442;28;20089;-62
2022/03/14 00:31:23;;;;;;;7.75;6.40;;;;;;;;;;4993585;28;20120;-63
2022/03/14 00:33:49;;;;;;;7.97;7.25;;;;;;;;;;4995898;28;20034;-63
2022/03/14 00:36:15;;;;;;;14.07;7.47;;;;;;;;;;4999396;28;20049;-62
2022/03/14 00:38:40;;;;;;;8.70;8.00;;;;;;;;;;4995779;28;20467;-62
2022/03/14 00:41:08;;;;;;;9.18;7.95;;;;;;;;;;4998244;28;20125;-62
2022/03/14 00:43:34;;;;;;;6.97;6.38;;;;;;;;;;4999161;28;20033;-62
2022/03/14 00:46:00;;;;;;;5.90;5.43;;;;;;;;;;4998919;28;20033;-62
2022/03/14 00:48:26;;;;;;;8.32;7.18;;;;;;;;;;4997660;28;20403;-62
2022/03/14 00:50:52;;;;;;;7.05;6.45;;;;;;;;;;4996524;28;20026;-62
2022/03/14 00:53:18;;;;;;;7.53;6.82;;;;;;;;;;4995187;28;20096;-62
2022/03/14 00:55:44;;;;;;;7.28;6.10;;;;;;;;;;4996159;28;20038;-62
2022/03/14 00:58:09;;;;;;;10.48;6.68;;;;;;;;;;4996708;28;20107;-61
2022/03/14 01:00:35;;;;;;;8.23;7.53;;;;;;;;;;4994936;28;20071;-61
2022/03/14 01:03:01;;;;;;;7.63;7.03;;;;;;;;;;4996318;28;20049;-62
2022/03/14 01:05:27;;;;;;;9.70;7.38;;;;;;;;;;5000642;28;20503;-62
2022/03/14 01:07:52;;;;;;;7.95;7.13;;;;;;;;;;4998123;28;20048;-63
2022/03/14 01:10:19;;;;;;;7.57;6.95;;;;;;;;;;4995420;28;20092;-61
2022/03/14 01:12:44;;;;;;;7.82;7.07;;;;;;;;;;4998256;28;20041;-62
2022/03/14 01:15:10;;;;;;;6.30;5.70;;;;;;;;;;4995209;28;20126;-63
2022/03/14 01:17:36;;;;;;;8.20;7.25;;;;;;;;;;4996144;28;20092;-61
2022/03/14 01:20:03;;;;;;;7.85;7.15;;;;;;;;;;4996809;28;20072;-61
2022/03/14 01:22:29;;;;;;;7.22;6.63;;;;;;;;;;4996003;28;20096;-62
2022/03/14 01:24:54;;;;;;;9.02;8.13;;;;;;;;;;4997718;28;20033;-62
2022/03/14 01:27:20;;;;;;;9.00;7.82;;;;;;;;;;4999433;28;20026;-62
2022/03/14 01:29:45;;;;;;;7.32;6.65;;;;;;;;;;4997856;28;20030;-63
2022/03/14 01:32:10;;;;;;;9.43;7.95;;;;;;;;;;4996612;28;20029;-63
2022/03/14 01:34:36;;;;;;;8.05;7.22;;;;;;;;;;4996351;28;20038;-63
2022/03/14 01:37:02;;;;;;;7.53;6.82;;;;;;;;;;5000441;28;20030;-63
2022/03/14 01:39:28;;;;;;;8.60;7.18;;;;;;;;;;4995923;28;20121;-62
2022/03/14 01:41:55;;;;;;;7.22;6.53;;;;;;;;;;4996858;28;20437;-63
2022/03/14 01:44:21;;;;;;;8.25;6.68;;;;;;;;;;4997140;28;20026;-63
2022/03/14 01:46:47;;;;;;;7.55;6.80;;;;;;;;;;4997618;28;20037;-62
2022/03/14 01:49:13;;;;;;;7.07;6.47;;;;;;;;;;5000909;28;20067;-63
2022/03/14 01:51:41;;;;;;;7.05;6.35;;;;;;;;;;4994078;28;20340;-63
2022/03/14 01:54:10;;;;;;;7.47;6.78;;;;;;;;;;4998146;28;20415;-64
2022/03/14 01:56:38;;;;;;;6.90;6.00;;;;;;;;;;4997942;28;20026;-63
2022/03/14 01:59:04;;;;;;;6.03;5.47;;;;;;;;;;4999343;28;20376;-63
2022/03/14 02:01:29;;;;;;;7.28;6.57;;;;;;;;;;4995407;28;20112;-62
2022/03/14 02:03:55;;;;;;;9.70;8.63;;;;;;;;;;4996504;28;20027;-62
2022/03/14 02:06:20;;;;;;;8.60;6.40;;;;;;;;;;4995713;28;20036;-63
2022/03/14 02:08:46;;;;;;;6.38;5.88;;;;;;;;;;4995926;28;20588;-63
2022/03/14 02:11:12;;;;;;;6.55;5.95;;;;;;;;;;4995732;28;20044;-62
2022/03/14 02:13:37;;;;;;;6.22;5.72;;;;;;;;;;4993766;28;20526;-63
2022/03/14 02:16:03;;;;;;;6.85;6.15;;;;;;;;;;4995482;28;20026;-64
2022/03/14 02:18:28;;;;;;;7.18;6.47;;;;;;;;;;4993005;28;20038;-63
2022/03/14 02:20:54;;;;;;;7.85;7.07;;;;;;;;;;4995593;28;20038;-62
2022/03/14 02:23:20;;;;;;;7.50;6.60;;;;;;;;;;4998434;28;20037;-64
2022/03/14 02:25:50;;;;;;;6.85;6.25;;;;;;;;;;4996304;28;20033;-64
2022/03/14 02:28:22;;;;;;;6.93;6.25;;;;;;;;;;4996992;28;20547;-64
2022/03/14 02:30:51;;;;;;;6.10;5.57;;;;;;;;;;4999963;28;20034;-63
2022/03/14 02:33:16;;;;;;;7.22;6.63;;;;;;;;;;4997311;28;20058;-62
2022/03/14 02:35:43;;;;;;;5.85;5.25;;;;;;;;;;4995080;28;20452;-62
2022/03/14 02:38:15;;;;;;;7.65;6.00;;;;;;;;;;4994352;28;20104;-63
2022/03/14 02:40:46;;;;;;;6.25;5.65;;;;;;;;;;4994640;28;20092;-63
2022/03/14 02:43:14;;;;;;;5.97;5.28;;;;;;;;;;4996192;28;20109;-62
2022/03/14 02:45:41;;;;;;;6.68;6.18;;;;;;;;;;4992100;28;20109;-62
2022/03/14 02:48:07;;;;;;;5.63;5.15;;;;;;;;;;4994436;28;20038;-64
2022/03/14 02:50:34;;;;;;;7.57;6.97;;;;;;;;;;4992628;28;20042;-62
2022/03/14 02:53:00;;;;;;;9.40;8.70;;;;;;;;;;4993499;28;20156;-62
2022/03/14 02:55:26;;;;;;;7.65;6.47;;;;;;;;;;4995501;28;20164;-62
2022/03/14 02:57:52;;;;;;;6.65;6.15;;;;;;;;;;5001610;28;20053;-62
2022/03/14 03:00:17;;;;;;;6.30;5.80;;;;;;;;;;4995347;28;20108;-62
2022/03/14 03:02:43;;;;;;;5.55;4.72;;;;;;;;;;4998183;28;20570;-61
2022/03/14 03:05:09;;;;;;;5.20;4.80;;;;;;;;;;4998333;28;20026;-62
2022/03/14 03:07:37;;;;;;;5.60;5.20;;;;;;;;;;4998121;28;20066;-62
2022/03/14 03:10:04;;;;;;;4.85;4.40;;;;;;;;;;4998311;28;20685;-63
2022/03/14 03:12:32;;;;;;;4.63;4.22;;;;;;;;;;4996824;28;20034;-62
2022/03/14 03:14:58;;;;;;;4.72;4.32;;;;;;;;;;4998046;28;20108;-62
2022/03/14 03:17:24;;;;;;;4.57;4.18;;;;;;;;;;4996454;28;20518;-62
2022/03/14 03:19:49;;;;;;;5.95;5.53;;;;;;;;;;4997086;28;20029;-63
2022/03/14 03:22:15;;;;;;;4.88;4.47;;;;;;;;;;5000324;28;20436;-61
2022/03/14 03:24:40;;;;;;;5.03;4.63;;;;;;;;;;4996339;28;20133;-62
2022/03/14 03:27:06;;;;;;;5.32;4.93;;;;;;;;;;4999171;28;20607;-62
2022/03/14 03:29:31;;;;;;;5.10;4.70;;;;;;;;;;4999020;28;20030;-62
2022/03/14 03:31:57;;;;;;;5.28;4.88;;;;;;;;;;4998024;28;20408;-61
2022/03/14 03:34:22;;;;;;;5.68;5.18;;;;;;;;;;4998941;28;20031;-62
2022/03/14 03:36:47;;;;;;;6.43;5.93;;;;;;;;;;4998113;28;20046;-63
2022/03/14 03:39:13;;;;;;;5.75;5.32;;;;;;;;;;4996206;28;20034;-63
2022/03/14 03:41:39;;;;;;;5.93;5.53;;;;;;;;;;5000949;28;20049;-62
2022/03/14 03:44:05;;;;;;;6.13;5.35;;;;;;;;;;4997605;28;20034;-61
2022/03/14 03:46:31;;;;;;;5.22;4.78;;;;;;;;;;4999241;28;20030;-66
2022/03/14 03:48:56;;;;;;;6.00;5.50;;;;;;;;;;4997746;28;20352;-65
2022/03/14 03:51:22;;;;;;;7.20;6.70;;;;;;;;;;4999793;28;21032;-66
2022/03/14 03:53:47;;;;;;;6.68;6.18;;;;;;;;;;5001145;28;20520;-67
2022/03/14 03:56:13;;;;;;;5.60;5.20;;;;;;;;;;4994622;28;20606;-69
2022/03/14 03:58:38;;;;;;;8.68;8.07;;;;;;;;;;4995949;28;20153;-68
2022/03/14 04:01:04;;;;;;;11.73;11.02;;;;;;;;;;4995990;28;20044;-67
2022/03/14 04:03:29;;;;;;;9.65;9.05;;;;;;;;;;4996613;28;20041;-68
2022/03/14 04:05:55;;;;;;;5.55;5.15;;;;;;;;;;4993973;28;20091;-66
2022/03/14 04:08:21;;;;;;;9.48;5.90;;;;;;;;;;4997577;28;20046;-67
2022/03/14 04:10:53;;;;;;;5.50;5.10;;;;;;;;;;4997336;28;20125;-67
2022/03/14 04:13:20;;;;;;;5.65;5.15;;;;;;;;;;4986281;28;20046;-67
2022/03/14 04:15:51;;;;;;;5.45;5.05;;;;;;;;;;4996091;28;20026;-65
2022/03/14 04:18:18;;;;;;;5.53;5.13;;;;;;;;;;4998489;28;20033;-65
2022/03/14 04:20:46;;;;;;;5.32;4.93;;;;;;;;;;4998183;28;20030;-67
2022/03/14 04:23:11;;;;;;;5.45;5.05;;;;;;;;;;4995606;28;20068;-66
2022/03/14 04:25:37;;;;;;;5.28;4.88;;;;;;;;;;4995581;28;20086;-66
2022/03/14 04:28:02;;;;;;;5.93;5.53;;;;;;;;;;4998289;28;20083;-65
2022/03/14 04:30:28;;;;;;;5.55;5.15;;;;;;;;;;4997456;28;20029;-66
2022/03/14 04:32:53;;;;;;;6.00;5.50;;;;;;;;;;4995129;28;20682;-66
2022/03/14 04:35:18;;;;;;;5.78;5.38;;;;;;;;;;4994650;28;20037;-66
2022/03/14 04:37:44;;;;;;;6.25;5.78;;;;;;;;;;4996322;28;20034;-65
2022/03/14 04:40:11;;;;;;;6.55;6.05;;;;;;;;;;4995729;28;20041;-64
2022/03/14 04:42:37;;;;;;;6.60;6.00;;;;;;;;;;4995124;28;20030;-65
2022/03/14 04:45:04;;;;;;;4.75;4.35;;;;;;;;;;4995203;28;20483;-65
2022/03/14 04:47:29;;;;;;;5.47;5.07;;;;;;;;;;4993423;28;20100;-64
2022/03/14 04:49:55;;;;;;;5.55;5.15;;;;;;;;;;4995077;28;20038;-66
2022/03/14 04:52:21;;;;;;;6.03;5.63;;;;;;;;;;4996098;28;20408;-66
2022/03/14 04:54:47;;;;;;;4.60;4.20;;;;;;;;;;4995588;28;20034;-66
2022/03/14 04:57:13;;;;;;;6.38;5.78;;;;;;;;;;4992287;28;20149;-65
2022/03/14 04:59:39;;;;;;;5.13;4.72;;;;;;;;;;4997643;28;20403;-66
2022/03/14 05:02:06;;;;;;;5.82;5.43;;;;;;;;;;4995738;28;20034;-65
2022/03/14 05:04:32;;;;;;;6.00;5.50;;;;;;;;;;4995667;28;20037;-65
2022/03/14 05:06:58;;;;;;;4.75;4.35;;;;;;;;;;4996658;28;20033;-64
2022/03/14 05:09:25;;;;;;;4.97;4.57;;;;;;;;;;4992818;28;20124;-64
2022/03/14 05:11:50;;;;;;;4.63;4.22;;;;;;;;;;4990819;28;20056;-65
2022/03/14 05:14:16;;;;;;;4.82;4.43;;;;;;;;;;4999794;28;20037;-66
2022/03/14 05:16:42;;;;;;;5.53;5.13;;;;;;;;;;4993264;28;20030;-65
2022/03/14 05:19:08;;;;;;;4.88;4.47;;;;;;;;;;4993438;28;20157;-64
2022/03/14 05:21:34;;;;;;;4.65;4.28;;;;;;;;;;4993210;28;20135;-64
2022/03/14 05:23:59;;;;;;;3.80;3.50;;;;;;;;;;4993176;28;20096;-63
2022/03/14 05:26:24;;;;;;;4.72;4.32;;;;;;;;;;4993871;28;20068;-64
2022/03/14 05:28:50;;;;;;;4.50;4.10;;;;;;;;;;4994964;28;20579;-64
2022/03/14 05:31:16;;;;;;;4.75;4.35;;;;;;;;;;4995154;28;20037;-63
2022/03/14 05:33:41;;;;;;;4.90;4.50;;;;;;;;;;4996072;28;20096;-64
2022/03/14 05:36:06;;;;;;;4.70;4.30;;;;;;;;;;4994974;28;20423;-65
2022/03/14 05:38:32;;;;;;;4.38;3.97;;;;;;;;;;4997397;28;20053;-64
2022/03/14 05:40:58;;;;;;;4.43;4.07;;;;;;;;;;4995802;28;20043;-64
2022/03/14 05:43:25;;;;;;;6.28;5.80;;;;;;;;;;4997011;28;20089;-64
2022/03/14 05:45:51;;;;;;;4.35;4.05;;;;;;;;;;4994755;28;20109;-64
2022/03/14 05:48:17;;;;;;;4.50;4.10;;;;;;;;;;4995711;28;20030;-64
2022/03/14 05:50:42;;;;;;;4.05;3.75;;;;;;;;;;4994679;28;20061;-64
2022/03/14 05:53:08;;;;;;;4.03;3.65;;;;;;;;;;4993517;28;20034;-63
2022/03/14 05:55:34;;;;;;;4.50;4.10;;;;;;;;;;4990496;28;20034;-64
2022/03/14 05:57:59;;;;;;;4.82;4.43;;;;;;;;;;4994540;28;20083;-64
2022/03/14 06:00:25;;;;;;;4.25;3.88;;;;;;;;;;4994800;28;20510;-63
2022/03/14 06:02:54;;;;;;;4.15;3.75;;;;;;;;;;4991555;28;20077;-64
2022/03/14 06:05:21;;;;;;;4.70;4.30;;;;;;;;;;4995589;28;20026;-63
2022/03/14 06:07:47;;;;;;;3.90;3.60;;;;;;;;;;4994730;28;20068;-62
2022/03/14 06:10:16;;;;;;;5.78;4.55;;;;;;;;;;4993733;28;20065;-62
2022/03/14 06:12:42;;;;;;;5.05;4.65;;;;;;;;;;4994778;28;20034;-63
2022/03/14 06:15:12;;;;;;;4.72;4.32;;;;;;;;;;5022769;28;20027;-63
2022/03/14 06:17:37;;;;;;;3.80;3.50;;;;;;;;;;5000150;28;20057;-63
2022/03/14 06:20:03;;;;;;;5.03;4.53;;;;;;;;;;4995830;28;20038;-64
2022/03/14 06:22:29;;;;;;;4.00;3.70;;;;;;;;;;4994832;28;20109;-64
2022/03/14 06:24:54;;;;;;;3.83;3.53;;;;;;;;;;4991954;28;20038;-63
2022/03/14 06:27:22;;;;;;;4.90;4.50;;;;;;;;;;4993417;28;20031;-64
2022/03/14 06:29:48;;;;;;;4.25;3.95;;;;;;;;;;4995846;28;20034;-63
2022/03/14 06:32:14;;;;;;;4.47;4.13;;;;;;;;;;4999391;28;20126;-64
2022/03/14 06:34:40;;;;;;;4.45;4.05;;;;;;;;;;4998357;28;20049;-64
2022/03/14 06:37:07;;;;;;;4.55;4.15;;;;;;;;;;4998530;28;20034;-64
2022/03/14 06:39:37;;;;;;;3.90;3.60;;;;;;;;;;4999040;28;20052;-63
2022/03/14 06:42:08;;;;;;;4.82;4.43;;;;;;;;;;5001436;28;20077;-63
2022/03/14 06:44:35;;;;;;;4.53;4.13;;;;;;;;;;5003288;28;20030;-63
2022/03/14 06:47:01;;;;;;;4.15;3.75;;;;;;;;;;4998733;28;20523;-63
2022/03/14 06:49:26;;;;;;;4.47;4.07;;;;;;;;;;5001184;28;20048;-63
2022/03/14 06:51:52;;;;;;;4.43;4.07;;;;;;;;;;5003213;28;20101;-63
2022/03/14 06:54:17;;;;;;;4.57;4.18;;;;;;;;;;5001651;28;20034;-64
2022/03/14 06:56:43;;;;;;;4.65;4.25;;;;;;;;;;5001212;28;20041;-63
2022/03/14 06:59:09;;;;;;;4.70;4.30;;;;;;;;;;4998849;28;20034;-64
2022/03/14 07:01:35;;;;;;;4.53;4.13;;;;;;;;;;4996436;28;20459;-64
2022/03/14 07:04:02;;;;;;;4.47;4.07;;;;;;;;;;4999246;28;20037;-65
2022/03/14 07:06:28;;;;;;;4.68;4.28;;;;;;;;;;4997388;28;20038;-65
2022/03/14 07:08:53;;;;;;;4.47;4.07;;;;;;;;;;5000407;28;20375;-65
2022/03/14 07:11:19;;;;;;;4.70;4.30;;;;;;;;;;5001268;28;20635;-65
2022/03/14 07:13:44;;;;;;;5.18;4.78;;;;;;;;;;4996443;28;20531;-62
2022/03/14 07:16:09;;;;;;;4.05;3.75;;;;;;;;;;5003627;28;20346;-64
2022/03/14 07:18:35;;;;;;;4.93;4.53;;;;;;;;;;4996373;28;20137;-64
2022/03/14 07:21:00;;;;;;;4.55;4.15;;;;;;;;;;4998550;28;20049;-63
2022/03/14 07:23:26;;;;;;;4.78;4.38;;;;;;;;;;4998846;28;20057;-65
2022/03/14 07:25:51;;;;;;;5.05;4.60;;;;;;;;;;4997546;28;20037;-64
2022/03/14 07:28:18;;;;;;;4.35;3.95;;;;;;;;;;5003754;28;20034;-63
2022/03/14 07:30:45;;;;;;;5.93;5.43;;;;;;;;;;4999934;28;20050;-64
2022/03/14 07:33:11;;;;;;;4.40;4.00;;;;;;;;;;4998625;28;20030;-63
2022/03/14 07:35:36;;;;;;;6.22;4.68;;;;;;;;;;5001816;28;20471;-62
2022/03/14 07:38:03;;;;;;;4.47;4.07;;;;;;;;;;4999404;28;20061;-63
2022/03/14 07:40:29;;;;;;;4.43;4.03;;;;;;;;;;4998662;28;20030;-63
2022/03/14 07:42:56;;;;;;;5.18;3.95;;;;;;;;;;4999852;28;20336;-63
2022/03/14 07:45:26;;;;;;;4.47;4.07;;;;;;;;;;5001236;28;20064;-64
2022/03/14 07:47:53;;;;;;;3.85;3.55;;;;;;;;;;5000889;28;20045;-63
2022/03/14 07:50:19;;;;;;;5.22;3.95;;;;;;;;;;5000283;28;20038;-63
2022/03/14 07:52:47;;;;;;;4.68;4.28;;;;;;;;;;4997749;28;20112;-64
2022/03/14 07:55:12;;;;;;;5.40;5.00;;;;;;;;;;4996085;28;20116;-64
2022/03/14 07:57:39;;;;;;;4.10;3.70;;;;;;;;;;5002548;28;20105;-63
2022/03/14 08:00:10;;;;;;;4.72;4.32;;;;;;;;;;4996885;28;20038;-63
2022/03/14 08:02:35;;;;;;;;;;;;;;;;;;5000306;28;20037;-63
2022/03/14 08:05:01;;;;;;;13.57;4.38;;;;;;;;;;5000029;28;19997;-63
2022/03/14 08:07:27;;;;;;;5.03;3.92;;;;;;;;;;5001103;28;20449;-63
2022/03/14 08:09:53;;;;;;;4.03;3.65;;;;;;;;;;4999503;28;20423;-63
2022/03/14 08:12:20;;;;;;;4.32;3.97;;;;;;;;;;4999858;28;20034;-63
2022/03/14 08:14:47;;;;;;;4.30;3.90;;;;;;;;;;4998377;28;20446;-63
2022/03/14 08:17:13;;;;;;;4.90;4.50;;;;;;;;;;4998465;28;20045;-63
2022/03/14 08:19:39;;;;;;;5.05;4.65;;;;;;;;;;5001941;28;20092;-63
2022/03/14 08:22:05;;;;;;;4.47;4.07;;;;;;;;;;5002407;28;20437;-63
2022/03/14 08:24:30;;;;;;;7.82;4.00;;;;;;;;;;4995305;28;20042;-63
2022/03/14 08:26:56;;;;;;;4.35;3.97;;;;;;;;;;4996039;28;20041;-63
2022/03/14 08:29:21;;;;;;;4.78;4.38;;;;;;;;;;4996052;28;20030;-63
2022/03/14 08:31:47;;;;;;;5.50;5.10;;;;;;;;;;4994382;28;20045;-64
2022/03/14 08:34:13;;;;;;;4.75;4.35;;;;;;;;;;4996896;28;20391;-62
2022/03/14 08:36:40;;;;;;;5.50;5.00;;;;;;;;;;4999029;28;20419;-65
2022/03/14 08:39:07;;;;;;;4.75;4.35;;;;;;;;;;4998326;28;20095;-64
2022/03/14 08:41:34;;;;;;;6.45;5.28;;;;;;;;;;4998397;28;20065;-64
2022/03/14 08:44:00;;;;;;;5.53;5.07;;;;;;;;;;4996233;28;20506;-63
2022/03/14 08:46:25;;;;;;;4.80;4.40;;;;;;;;;;4995178;28;20033;-64
2022/03/14 08:48:50;;;;;;;8.30;4.43;;;;;;;;;;5001227;28;20049;-64
2022/03/14 08:51:16;;;;;;;5.85;5.35;;;;;;;;;;4998750;28;20040;-64
2022/03/14 08:53:41;;;;;;;5.38;4.88;;;;;;;;;;4999160;28;20487;-63
2022/03/14 08:56:07;;;;;;;5.57;5.18;;;;;;;;;;4999395;28;20038;-64
2022/03/14 08:58:33;;;;;;;4.68;4.28;;;;;;;;;;4997286;28;20026;-64
2022/03/14 09:00:59;;;;;;;4.72;4.32;;;;;;;;;;4992052;28;20038;-63
2022/03/14 09:03:28;;;;;;;5.07;4.68;;;;;;;;;;4993186;28;20714;-63
2022/03/14 09:05:56;;;;;;;4.93;4.53;;;;;;;;;;4993143;28;20375;-63
2022/03/14 09:08:26;;;;;;;4.45;4.05;;;;;;;;;;4992967;28;20053;-63
2022/03/14 09:10:53;;;;;;;4.68;4.28;;;;;;;;;;4994576;28;20041;-64
2022/03/14 09:13:20;;;;;;;4.75;4.30;;;;;;;;;;4998627;28;20040;-63
2022/03/14 09:15:47;;;;;;;4.38;3.97;;;;;;;;;;4997416;28;20039;-63
2022/03/14 09:18:14;;;;;;;4.50;4.10;;;;;;;;;;4999643;28;20726;-63
2022/03/14 09:20:40;;;;;;;4.55;4.15;;;;;;;;;;4998871;28;20336;-63
2022/03/14 09:23:07;;;;;;;4.40;4.00;;;;;;;;;;4996173;28;20102;-63
2022/03/14 09:25:33;;;;;;;4.10;3.78;;;;;;;;;;4997952;28;20437;-64
2022/03/14 09:27:58;;;;;;;5.30;4.90;;;;;;;;;;4999662;28;20030;-63
2022/03/14 09:30:24;;;;;;;4.78;4.38;;;;;;;;;;4996648;28;20113;-63
2022/03/14 09:32:51;;;;;;;5.60;5.05;;;;;;;;;;4997844;28;20490;-63
2022/03/14 09:35:16;;;;;;;5.70;4.60;;;;;;;;;;4999506;28;20119;-63
2022/03/14 09:37:43;;;;;;;4.97;4.57;;;;;;;;;;4997871;28;20061;-63
2022/03/14 09:40:11;;;;;;;4.50;4.10;;;;;;;;;;4994844;28;20117;-63
2022/03/14 09:42:40;;;;;;;5.03;4.55;;;;;;;;;;4993082;28;20071;-63
2022/03/14 09:45:08;;;;;;;7.75;5.65;;;;;;;;;;5013476;28;20046;-63
2022/03/14 09:47:40;;;;;;;6.22;4.78;;;;;;;;;;4997646;28;20033;-63
2022/03/14 09:50:09;;;;;;;5.75;5.00;;;;;;;;;;4997366;28;20703;-63
2022/03/14 09:52:37;;;;;;;4.93;4.53;;;;;;;;;;4998802;28;20034;-62
2022/03/14 09:55:05;;;;;;;4.57;4.18;;;;;;;;;;4997419;28;20128;-63
2022/03/14 09:57:31;;;;;;;5.15;4.70;;;;;;;;;;4997542;28;20095;-63
2022/03/14 09:59:56;;;;;;;3.80;3.50;;;;;;;;;;4996354;28;20045;-64
2022/03/14 10:02:23;;;;;;;4.70;4.30;;;;;;;;;;4994443;28;20037;-64
2022/03/14 10:04:48;;;;;;;4.90;4.50;;;;;;;;;;5001609;28;20451;-63
2022/03/14 10:07:14;;;;;;;5.10;4.60;;;;;;;;;;4994448;28;20050;-63
2022/03/14 10:09:39;;;;;;;6.03;5.53;;;;;;;;;;4997822;28;20026;-64
2022/03/14 10:12:05;;;;;;;5.13;4.72;;;;;;;;;;4995559;28;20751;-63
2022/03/14 10:14:31;;;;;;;6.30;5.80;;;;;;;;;;4998458;28;20527;-63
2022/03/14 10:16:57;;;;;;;5.57;5.18;;;;;;;;;;4997331;28;20438;-63
2022/03/14 10:19:34;;;;;;;4.80;4.40;;;;;;;;;;4997412;28;20033;-63
2022/03/14 10:22:18;;;;;;;9.25;4.80;;;;;;;;;;4996090;28;20038;-63
2022/03/14 10:24:44;;;;;;;6.80;4.25;;;;;;;;;;4997735;28;20045;-63
2022/03/14 10:27:11;;;;;;;4.95;4.55;;;;;;;;;;4997794;28;20109;-63
2022/03/14 10:29:37;;;;;;;4.80;4.40;;;;;;;;;;5004893;28;20034;-63
2022/03/14 10:32:18;;;;;;;4.45;4.05;;;;;;;;;;4997561;28;20101;-63
2022/03/14 10:34:51;;;;;;;;;;;;;;;;;;4999199;28;20432;-63
2022/03/14 10:37:16;;;;;;;4.68;4.28;;;;;;;;;;4998584;28;19940;-63
2022/03/14 10:39:41;;;;;;;4.03;3.72;;;;;;;;;;4999787;28;20250;-63
2022/03/14 10:42:12;;;;;;;4.60;4.20;;;;;;;;;;4997295;28;20034;-63
2022/03/14 10:44:42;;;;;;;4.43;4.07;;;;;;;;;;4997831;28;20471;-62
2022/03/14 10:47:10;;;;;;;4.25;3.95;;;;;;;;;;4997666;28;20042;-63
2022/03/14 10:49:38;;;;;;;4.85;4.45;;;;;;;;;;4996311;28;20046;-63
2022/03/14 10:52:06;;;;;;;4.13;3.83;;;;;;;;;;4999254;28;20117;-63
2022/03/14 10:54:34;;;;;;;5.18;4.75;;;;;;;;;;4996739;28;20506;-63
2022/03/14 10:57:08;;;;;;;4.70;4.30;;;;;;;;;;4995453;28;20045;-62
2022/03/14 10:59:38;;;;;;;4.63;4.22;;;;;;;;;;4996120;28;20034;-63
2022/03/14 11:02:06;;;;;;;4.28;3.97;;;;;;;;;;4998922;28;20033;-63
2022/03/14 11:04:48;;;;;;;4.05;3.72;;;;;;;;;;4989647;28;20038;-61
2022/03/14 11:07:15;;;;;;;4.65;4.25;;;;;;;;;;4995111;28;20030;-63
2022/03/14 11:09:43;;;;;;;4.78;4.38;;;;;;;;;;4994683;28;20117;-63
2022/03/14 11:12:11;;;;;;;4.63;4.22;;;;;;;;;;4996068;28;20585;-63
2022/03/14 11:14:36;;;;;;;5.05;4.45;;;;;;;;;;4996972;28;20068;-63
2022/03/14 11:17:14;;;;;;;4.13;3.72;;;;;;;;;;4999041;28;20030;-63
2022/03/14 11:19:40;;;;;;;6.78;4.43;;;;;;;;;;5001283;28;20112;-62
2022/03/14 11:22:10;;;;;;;5.97;4.45;;;;;;;;;;5000087;28;20034;-64
2022/03/14 11:24:38;;;;;;;5.25;4.75;;;;;;;;;;4998703;28;20045;-63
2022/03/14 11:27:05;;;;;;;4.72;4.32;;;;;;;;;;5001054;28;20049;-64
2022/03/14 11:29:34;;;;;;;4.85;4.45;;;;;;;;;;5006622;28;20025;-64
2022/03/14 11:32:00;;;;;;;4.32;3.92;;;;;;;;;;4998619;28;20032;-64
2022/03/14 11:34:28;;;;;;;5.63;5.13;;;;;;;;;;4999132;28;20064;-63
2022/03/14 11:36:55;;;;;;;4.40;4.00;;;;;;;;;;4999292;28;20037;-63
2022/03/14 11:39:22;;;;;;;4.43;4.03;;;;;;;;;;5001978;28;20037;-63
2022/03/14 11:41:48;;;;;;;4.97;4.57;;;;;;;;;;4999243;28;20577;-63
2022/03/14 11:44:15;;;;;;;5.10;4.70;;;;;;;;;;5000950;28;20061;-63
2022/03/14 11:46:42;;;;;;;5.10;4.60;;;;;;;;;;5000084;28;20416;-63
2022/03/14 11:49:13;;;;;;;4.95;4.55;;;;;;;;;;4997437;28;20018;-62
2022/03/14 11:51:41;;;;;;;5.38;4.57;;;;;;;;;;5000530;28;20037;-63
2022/03/14 11:54:14;;;;;;;5.75;5.25;;;;;;;;;;5002389;28;20078;-63
2022/03/14 11:56:56;;;;;;;5.25;4.75;;;;;;;;;;4999683;28;20023;-64
2022/03/14 11:59:29;;;;;;;5.18;4.78;;;;;;;;;;5000673;28;20144;-63
2022/03/14 12:02:00;;;;;;;4.10;3.80;;;;;;;;;;4996392;28;20037;-62
2022/03/14 12:04:37;;;;;;;4.78;4.38;;;;;;;;;;4994506;28;20053;-63
2022/03/14 12:07:12;;;;;;;4.90;4.50;;;;;;;;;;4998228;28;20125;-64
2022/03/14 12:09:38;;;;;;;4.82;4.43;;;;;;;;;;4995781;28;20126;-63
2022/03/14 12:12:21;;;;;;;4.32;3.95;;;;;;;;;;5007291;28;20563;-64
2022/03/14 12:14:56;;;;;;;4.90;4.50;;;;;;;;;;4995446;28;20088;-64
2022/03/14 12:17:30;;;;;;;4.85;4.45;;;;;;;;;;4997911;28;20132;-63
2022/03/14 12:19:59;;;;;;;4.97;4.57;;;;;;;;;;4998647;28;20034;-63
2022/03/14 12:22:32;;;;;;;4.50;4.10;;;;;;;;;;5000707;28;20022;-63
2022/03/14 12:24:59;;;;;;;4.88;4.47;;;;;;;;;;5001147;28;20124;-63
2022/03/14 12:27:26;;;;;;;4.90;4.50;;;;;;;;;;4998584;28;20033;-63
2022/03/14 12:29:53;;;;;;;5.15;4.75;;;;;;;;;;4996120;28;20045;-62
2022/03/14 12:32:35;;;;;;;4.65;4.25;;;;;;;;;;4997077;28;20026;-63
2022/03/14 12:35:18;;;;;;;4.40;4.00;;;;;;;;;;5013062;28;20042;-64
2022/03/14 12:37:50;;;;;;;5.32;4.93;;;;;;;;;;4997343;28;20030;-63
2022/03/14 12:40:18;;;;;;;4.32;4.03;;;;;;;;;;4998143;28;20038;-62
2022/03/14 12:42:46;;;;;;;4.72;4.07;;;;;;;;;;4997943;28;20070;-62
2022/03/14 12:45:21;;;;;;;5.00;4.60;;;;;;;;;;4993631;28;20034;-62
2022/03/14 12:47:58;;;;;;;5.57;5.07;;;;;;;;;;4994288;28;20110;-61
2022/03/14 12:50:57;;;;;;;4.82;4.43;;;;;;;;;;4995733;28;20026;-63
2022/03/14 12:53:27;;;;;;;5.20;4.70;;;;;;;;;;4966590;28;20057;-62
2022/03/14 12:55:54;;;;;;;5.28;4.88;;;;;;;;;;5001839;28;20577;-62
2022/03/14 12:58:28;;;;;;;5.15;4.65;;;;;;;;;;5000276;28;20041;-63
2022/03/14 13:00:55;;;;;;;4.60;4.20;;;;;;;;;;4996208;28;20046;-63
2022/03/14 13:03:26;;;;;;;5.60;5.20;;;;;;;;;;4996669;28;20038;-63
2022/03/14 13:05:51;;;;;;;4.95;4.55;;;;;;;;;;4997981;28;20030;-63
2022/03/14 13:08:17;;;;;;;4.82;4.43;;;;;;;;;;4998600;28;20036;-63
2022/03/14 13:10:48;;;;;;;5.80;5.40;;;;;;;;;;4998490;28;20042;-63
2022/03/14 13:13:32;;;;;;;6.05;5.65;;;;;;;;;;4997705;28;20038;-63
2022/03/14 13:16:03;;;;;;;5.90;5.50;;;;;;;;;;4998901;28;20047;-63
2022/03/14 13:18:36;;;;;;;5.47;5.07;;;;;;;;;;4999112;28;20034;-63
2022/03/14 13:21:29;;;;;;;6.22;5.82;;;;;;;;;;4998795;28;20052;-62
2022/03/14 13:24:06;;;;;;;6.78;6.28;;;;;;;;;;4994861;28;20694;-62
2022/03/14 13:26:34;;;;;;;6.20;5.80;;;;;;;;;;4996300;28;20096;-64
2022/03/14 13:29:02;;;;;;;6.28;5.88;;;;;;;;;;4998303;28;20061;-63
2022/03/14 13:31:38;;;;;;;5.65;5.25;;;;;;;;;;4998817;28;20355;-63
2022/03/14 13:34:08;;;;;;;5.97;5.57;;;;;;;;;;4994798;28;20793;-63
2022/03/14 13:36:51;;;;;;;5.72;5.32;;;;;;;;;;4999196;28;20052;-62
2022/03/14 13:39:18;;;;;;;5.65;5.25;;;;;;;;;;4998349;28;20066;-63
2022/03/14 13:41:43;;;;;;;6.50;6.03;;;;;;;;;;4998225;28;20628;-62
2022/03/14 13:44:17;;;;;;;6.35;5.93;;;;;;;;;;4997194;28;20049;-62
2022/03/14 13:46:49;;;;;;;5.22;4.82;;;;;;;;;;4999993;28;20041;-64
2022/03/14 13:49:15;;;;;;;5.75;5.35;;;;;;;;;;4995799;28;20038;-63
2022/03/14 13:51:54;;;;;;;5.70;5.30;;;;;;;;;;4994649;28;20073;-63
2022/03/14 13:54:31;;;;;;;5.72;5.30;;;;;;;;;;4994804;28;20041;-63
2022/03/14 13:57:08;;;;;;;5.72;5.22;;;;;;;;;;4995286;28;20041;-63
2022/03/14 13:59:46;;;;;;;5.10;4.70;;;;;;;;;;4996148;28;20037;-62
2022/03/14 14:02:20;;;;;;;4.80;4.40;;;;;;;;;;4992605;28;20132;-64
2022/03/14 14:04:47;;;;;;;4.82;4.43;;;;;;;;;;4991208;28;20049;-64
2022/03/14 14:07:13;;;;;;;5.55;5.10;;;;;;;;;;4995225;28;20030;-64
2022/03/14 14:09:41;;;;;;;4.90;4.50;;;;;;;;;;4997442;28;20037;-62
2022/03/14 14:12:29;;;;;;;5.55;5.15;;;;;;;;;;4997746;28;20056;-62
2022/03/14 14:15:03;;;;;;;5.53;5.13;;;;;;;;;;4997830;28;20065;-64
2022/03/14 14:17:36;;;;;;;6.00;5.53;;;;;;;;;;4998409;28;20034;-63
2022/03/14 14:20:08;;;;;;;4.95;4.55;;;;;;;;;;4996348;28;20045;-63
2022/03/14 14:22:54;;;;;;;4.80;4.40;;;;;;;;;;4997701;28;20048;-63
2022/03/14 14:25:29;;;;;;;5.05;4.65;;;;;;;;;;4997391;28;20034;-64
2022/03/14 14:28:04;;;;;;;5.32;4.93;;;;;;;;;;4998729;28;20100;-62
2022/03/14 14:30:34;;;;;;;5.63;5.22;;;;;;;;;;4997985;28;20503;-64
2022/03/14 14:33:04;;;;;;;5.20;4.80;;;;;;;;;;4999338;28;20599;-63
2022/03/14 14:35:30;;;;;;;5.50;5.10;;;;;;;;;;4998672;28;21508;-62
2022/03/14 14:37:56;;;;;;;4.80;4.40;;;;;;;;;;4995947;28;20076;-64
2022/03/14 14:40:21;;;;;;;4.03;3.72;;;;;;;;;;4998981;28;20119;-65
2022/03/14 14:42:47;;;;;;;5.03;4.63;;;;;;;;;;4999175;28;20077;-62
2022/03/14 14:45:13;;;;;;;4.60;4.20;;;;;;;;;;4994908;28;20093;-62
2022/03/14 14:47:38;;;;;;;5.63;5.22;;;;;;;;;;4998298;28;20033;-64